createdAt,value
2018-09-18T00:00:23.826Z,30.20
2018-09-18T00:02:57.246Z,30.50
2018-09-18T00:05:30.622Z,30.35
2018-09-18T00:08:04.028Z,30.37
2018-09-18T00:10:37.419Z,30.50
2018-09-18T00:13:10.856Z,30.57
2018-09-18T00:15:44.242Z,30.32
2018-09-18T00:18:17.646Z,30.77
2018-09-18T00:20:51.034Z,30.92
2018-09-18T00:23:24.446Z,30.37
2018-09-18T00:25:57.830Z,30.68
2018-09-18T00:28:31.269Z,30.30
2018-09-18T00:31:04.668Z,30.20
2018-09-18T00:33:38.078Z,30.27
2018-09-18T00:36:11.480Z,29.95
2018-09-18T00:38:44.926Z,30.72
2018-09-18T00:41:18.326Z,30.52
2018-09-18T00:43:51.760Z,30.60
2018-09-18T00:46:25.154Z,30.48
2018-09-18T00:48:58.555Z,30.30
2018-09-18T00:51:31.956Z,30.48
2018-09-18T00:54:05.366Z,30.48
2018-09-18T00:56:38.778Z,30.17
2018-09-18T00:59:12.179Z,29.85
2018-09-18T01:01:45.558Z,30.65
2018-09-18T01:04:18.963Z,30.45
2018-09-18T01:06:52.391Z,30.70
2018-09-18T01:09:25.798Z,29.90
2018-09-18T01:11:59.234Z,29.95
2018-09-18T01:14:33.742Z,30.00
2018-09-18T01:17:07.123Z,30.25
2018-09-18T01:19:40.677Z,30.25
2018-09-18T01:22:14.070Z,30.70
2018-09-18T01:24:47.479Z,30.15
2018-09-18T01:27:20.864Z,29.72
2018-09-18T01:29:54.266Z,30.00
2018-09-18T01:32:27.695Z,29.98
2018-09-18T01:35:01.102Z,30.25
2018-09-18T01:37:34.505Z,30.57
2018-09-18T01:40:08.242Z,29.92
2018-09-18T01:42:41.603Z,30.60
2018-09-18T01:45:15.004Z,30.85
2018-09-18T01:47:48.376Z,30.25
2018-09-18T01:50:21.763Z,30.27
2018-09-18T01:52:55.132Z,30.15
2018-09-18T01:55:28.529Z,31.10
2018-09-18T01:58:01.902Z,30.27
2018-09-18T02:00:35.355Z,30.77
2018-09-18T02:03:08.791Z,30.25
2018-09-18T02:05:42.182Z,30.40
2018-09-18T02:08:15.554Z,30.70
2018-09-18T02:10:48.958Z,30.77
2018-09-18T02:13:22.325Z,30.17
2018-09-18T02:15:55.706Z,30.48
2018-09-18T02:18:29.082Z,30.30
2018-09-18T02:21:02.533Z,30.37
2018-09-18T02:23:36.003Z,30.55
2018-09-18T02:26:09.390Z,30.32
2018-09-18T02:28:48.049Z,30.97
2018-09-18T02:31:21.438Z,31.02
2018-09-18T02:33:54.798Z,31.45
2018-09-18T02:36:28.254Z,30.90
2018-09-18T02:39:01.778Z,31.45
2018-09-18T02:41:35.170Z,31.00
2018-09-18T02:44:08.560Z,31.23
2018-09-18T02:46:42.015Z,31.37
2018-09-18T02:49:15.404Z,32.08
2018-09-18T02:51:48.815Z,31.10
2018-09-18T02:54:22.306Z,31.02
2018-09-18T02:56:55.710Z,31.00
2018-09-18T02:59:29.099Z,31.57
2018-09-18T03:02:02.526Z,30.68
2018-09-18T03:04:35.919Z,31.95
2018-09-18T03:07:09.330Z,31.55
2018-09-18T03:09:42.722Z,31.27
2018-09-18T03:12:16.847Z,32.28
2018-09-18T03:14:50.251Z,30.88
2018-09-18T03:17:23.651Z,31.87
2018-09-18T03:19:57.810Z,31.93
2018-09-18T03:22:31.259Z,32.17
2018-09-18T03:25:04.890Z,30.72
2018-09-18T03:27:38.295Z,31.27
2018-09-18T03:30:11.683Z,31.35
2018-09-18T03:32:46.195Z,32.25
2018-09-18T03:35:19.589Z,30.52
2018-09-18T03:37:52.999Z,31.02
2018-09-18T03:40:26.403Z,31.40
2018-09-18T03:42:59.826Z,30.92
2018-09-18T03:45:33.199Z,31.05
2018-09-18T03:48:06.596Z,30.68
2018-09-18T03:50:39.969Z,31.35
2018-09-18T03:53:13.403Z,31.50
2018-09-18T03:55:46.787Z,30.80
2018-09-18T03:58:20.170Z,31.62
2018-09-18T04:00:53.558Z,32.00
2018-09-18T04:03:26.935Z,31.95
2018-09-18T04:06:00.306Z,30.77
2018-09-18T04:08:33.703Z,31.75
2018-09-18T04:11:07.218Z,31.20
2018-09-18T04:13:40.695Z,30.72
2018-09-18T04:16:14.067Z,30.62
2018-09-18T04:18:47.474Z,30.43
2018-09-18T04:21:20.839Z,30.77
2018-09-18T04:23:54.229Z,30.45
2018-09-18T04:26:27.642Z,30.92
2018-09-18T04:29:01.027Z,31.60
2018-09-18T04:31:34.393Z,30.43
2018-09-18T04:34:07.807Z,30.32
2018-09-18T04:36:41.191Z,30.65
2018-09-18T04:39:14.634Z,30.68
2018-09-18T04:41:48.001Z,30.43
2018-09-18T04:44:21.389Z,31.00
2018-09-18T04:46:54.753Z,31.35
2018-09-18T04:49:28.133Z,31.48
2018-09-18T04:52:01.483Z,30.43
2018-09-18T04:54:34.862Z,31.50
2018-09-18T04:57:08.315Z,30.50
2018-09-18T04:59:41.741Z,31.07
2018-09-18T05:02:15.072Z,30.57
2018-09-18T05:04:48.479Z,31.55
2018-09-18T05:07:21.835Z,31.07
2018-09-18T05:09:55.284Z,30.62
2018-09-18T05:12:28.671Z,31.80
2018-09-18T05:15:02.042Z,30.52
2018-09-18T05:17:35.386Z,30.45
2018-09-18T05:20:08.822Z,31.15
2018-09-18T05:22:42.263Z,31.97
2018-09-18T05:25:15.629Z,31.02
2018-09-18T05:27:48.986Z,30.92
2018-09-18T05:30:22.371Z,30.72
2018-09-18T05:32:55.735Z,30.92
2018-09-18T05:35:29.147Z,30.30
2018-09-18T05:38:02.503Z,30.72
2018-09-18T05:40:35.886Z,30.62
2018-09-18T05:43:09.235Z,31.23
2018-09-18T05:45:42.662Z,30.68
2018-09-18T05:48:16.043Z,33.05
2018-09-18T05:50:49.409Z,32.13
2018-09-18T05:53:22.759Z,31.65
2018-09-18T05:55:56.131Z,31.50
2018-09-18T05:58:29.679Z,31.57
2018-09-18T06:01:03.202Z,31.37
2018-09-18T06:03:36.571Z,31.85
2018-09-18T06:06:09.966Z,32.53
2018-09-18T06:08:43.343Z,31.85
2018-09-18T06:11:16.695Z,32.20
2018-09-18T06:13:50.067Z,31.95
2018-09-18T06:16:23.422Z,32.30
2018-09-18T06:18:56.886Z,31.75
2018-09-18T06:21:30.334Z,32.08
2018-09-18T06:24:03.718Z,32.58
2018-09-18T06:26:37.068Z,31.87
2018-09-18T06:29:10.440Z,31.40
2018-09-18T06:31:43.811Z,31.30
2018-09-18T06:34:17.178Z,31.40
2018-09-18T06:36:50.646Z,31.27
2018-09-18T06:39:24.034Z,31.12
2018-09-18T06:41:57.382Z,34.30
2018-09-18T06:44:30.875Z,31.87
2018-09-18T06:47:04.348Z,31.97
2018-09-18T06:49:37.751Z,31.27
2018-09-18T06:52:11.114Z,31.68
2018-09-18T06:54:44.499Z,31.27
2018-09-18T06:57:17.879Z,32.53
2018-09-18T06:59:51.255Z,33.20
2018-09-18T07:02:24.635Z,32.08
2018-09-18T07:04:58.051Z,31.77
2018-09-18T07:07:31.423Z,32.78
2018-09-18T07:10:04.843Z,32.53
2018-09-18T07:12:38.227Z,31.68
2018-09-18T07:15:11.643Z,32.98
2018-09-18T07:17:45.015Z,31.42
2018-09-18T07:20:18.442Z,32.20
2018-09-18T07:22:51.820Z,32.83
2018-09-18T07:25:25.210Z,32.05
2018-09-18T07:27:58.606Z,31.62
2018-09-18T07:30:31.999Z,32.17
2018-09-18T07:33:05.567Z,32.55
2018-09-18T07:35:38.982Z,31.77
2018-09-18T07:38:12.354Z,31.75
2018-09-18T07:40:45.786Z,31.60
2018-09-18T07:43:19.190Z,32.35
2018-09-18T07:45:52.571Z,32.40
2018-09-18T07:48:30.161Z,32.98
2018-09-18T07:51:04.111Z,32.85
2018-09-18T07:53:37.490Z,32.17
2018-09-18T07:56:10.887Z,32.28
2018-09-18T07:58:44.257Z,32.67
2018-09-18T08:01:17.650Z,32.58
2018-09-18T08:03:51.050Z,32.50
2018-09-18T08:06:24.438Z,32.48
2018-09-18T08:08:57.835Z,32.93
2018-09-18T08:11:31.217Z,32.70
2018-09-18T08:14:04.610Z,32.70
2018-09-18T08:16:37.998Z,33.08
2018-09-18T08:19:11.482Z,32.98
2018-09-18T08:21:44.815Z,33.08
2018-09-18T08:24:18.194Z,32.58
2018-09-18T08:26:51.607Z,33.23
2018-09-18T08:29:25.011Z,33.13
2018-09-18T08:31:58.402Z,33.00
2018-09-18T08:34:31.767Z,33.30
2018-09-18T08:37:05.194Z,32.98
2018-09-18T08:39:38.616Z,32.63
2018-09-18T08:42:11.996Z,33.65
2018-09-18T08:44:45.402Z,33.08
2018-09-18T08:47:18.829Z,33.18
2018-09-18T08:49:52.243Z,33.45
2018-09-18T08:52:25.643Z,32.78
2018-09-18T08:54:58.999Z,32.65
2018-09-18T08:57:32.423Z,33.05
2018-09-18T09:00:06.315Z,33.53
2018-09-18T09:02:39.707Z,32.23
2018-09-18T09:05:13.106Z,33.40
2018-09-18T09:07:46.586Z,33.98
2018-09-18T09:10:19.938Z,32.80
2018-09-18T09:12:53.319Z,32.70
2018-09-18T09:15:26.691Z,33.60
2018-09-18T09:18:00.173Z,33.33
2018-09-18T09:20:33.502Z,33.38
2018-09-18T09:23:07.126Z,33.23
2018-09-18T09:25:40.360Z,33.38
2018-09-18T09:28:13.811Z,32.88
2018-09-18T09:30:47.278Z,32.93
2018-09-18T09:33:20.768Z,33.30
2018-09-18T09:35:54.181Z,33.28
2018-09-18T09:38:27.746Z,33.60
2018-09-18T09:41:01.103Z,33.28
2018-09-18T09:43:34.585Z,33.58
2018-09-18T09:46:08.060Z,33.88
2018-09-18T09:48:41.438Z,33.65
2018-09-18T09:51:14.888Z,33.35
2018-09-18T09:53:48.274Z,33.75
2018-09-18T09:56:21.630Z,33.75
2018-09-18T09:58:55.002Z,34.30
2018-09-18T10:01:33.771Z,33.50
2018-09-18T10:04:07.142Z,34.25
2018-09-18T10:06:40.491Z,34.33
2018-09-18T10:09:13.944Z,34.08
2018-09-18T10:11:47.507Z,34.18
2018-09-18T10:14:20.887Z,34.35
2018-09-18T10:16:54.262Z,35.43
2018-09-18T10:19:27.634Z,34.58
2018-09-18T10:22:01.023Z,33.88
2018-09-18T10:24:34.422Z,34.78
2018-09-18T10:27:07.894Z,34.25
2018-09-18T10:29:41.174Z,34.10
2018-09-18T10:32:14.596Z,34.03
2018-09-18T10:34:47.982Z,33.95
2018-09-18T10:37:21.398Z,33.67
2018-09-18T10:39:54.838Z,34.18
2018-09-18T10:42:28.202Z,33.90
2018-09-18T10:45:01.586Z,33.65
2018-09-18T10:47:34.961Z,34.27
2018-09-18T10:50:08.423Z,34.25
2018-09-18T10:52:41.796Z,33.55
2018-09-18T10:55:15.178Z,34.00
2018-09-18T10:57:48.660Z,33.30
2018-09-18T11:00:22.049Z,34.35
2018-09-18T11:02:55.458Z,33.67
2018-09-18T11:05:28.887Z,33.30
2018-09-18T11:08:02.300Z,33.30
2018-09-18T11:10:35.743Z,33.70
2018-09-18T11:13:09.172Z,34.48
2018-09-18T11:15:42.526Z,33.55
2018-09-18T11:18:15.979Z,34.15
2018-09-18T11:20:49.331Z,33.92
2018-09-18T11:23:22.714Z,34.00
2018-09-18T11:25:56.154Z,34.33
2018-09-18T11:28:29.525Z,35.10
2018-09-18T11:31:02.926Z,33.45
2018-09-18T11:33:36.351Z,33.50
2018-09-18T11:36:09.743Z,33.63
2018-09-18T11:38:43.146Z,34.33
2018-09-18T11:41:16.511Z,34.40
2018-09-18T11:43:49.870Z,33.85
2018-09-18T11:46:23.286Z,34.15
2018-09-18T11:48:56.686Z,33.48
2018-09-18T11:51:30.180Z,34.33
2018-09-18T11:54:03.451Z,33.58
2018-09-18T11:56:36.852Z,34.38
2018-09-18T11:59:10.207Z,34.43
2018-09-18T12:01:43.635Z,34.23
2018-09-18T12:04:17.111Z,34.20
2018-09-18T12:06:56.695Z,34.67
2018-09-18T12:09:31.867Z,34.67
2018-09-18T12:12:08.807Z,34.20
2018-09-18T12:14:42.158Z,34.05
2018-09-18T12:17:16.567Z,34.25
2018-09-18T12:19:50.231Z,34.23
2018-09-18T12:22:23.678Z,34.55
2018-09-18T12:24:56.966Z,34.18
2018-09-18T12:27:30.342Z,34.35
2018-09-18T12:30:03.910Z,34.20
2018-09-18T12:32:37.306Z,34.60
2018-09-18T12:35:10.753Z,35.17
2018-09-18T12:37:44.071Z,35.45
2018-09-18T12:40:17.459Z,34.92
2018-09-18T12:42:50.922Z,34.60
2018-09-18T12:45:24.250Z,35.10
2018-09-18T12:47:57.672Z,34.18
2018-09-18T12:50:31.102Z,34.20
2018-09-18T12:53:04.360Z,35.17
2018-09-18T12:55:37.741Z,34.53
2018-09-18T12:58:11.460Z,34.50
2018-09-18T13:00:44.754Z,34.38
2018-09-18T13:03:18.102Z,34.00
2018-09-18T13:05:51.475Z,34.35
2018-09-18T13:08:25.222Z,34.45
2018-09-18T13:10:58.614Z,34.75
2018-09-18T13:13:32.242Z,34.33
2018-09-18T13:16:05.626Z,34.55
2018-09-18T13:18:39.022Z,34.15
2018-09-18T13:21:12.527Z,35.10
2018-09-18T13:23:46.015Z,34.33
2018-09-18T13:26:19.402Z,35.13
2018-09-18T13:28:52.798Z,35.03
2018-09-18T13:31:26.228Z,34.33
2018-09-18T13:33:59.591Z,34.92
2018-09-18T13:36:33.067Z,34.15
2018-09-18T13:39:07.319Z,34.65
2018-09-18T13:41:40.733Z,34.50
2018-09-18T13:44:14.100Z,34.55
2018-09-18T13:46:48.133Z,35.23
2018-09-18T13:49:21.515Z,34.43
2018-09-18T13:51:54.971Z,34.73
2018-09-18T13:54:28.332Z,35.08
2018-09-18T13:57:02.114Z,34.63
2018-09-18T13:59:35.544Z,35.03
2018-09-18T14:02:09.010Z,34.23
2018-09-18T14:04:42.390Z,34.33
2018-09-18T14:07:15.839Z,34.58
2018-09-18T14:09:49.550Z,33.80
2018-09-18T14:12:22.936Z,34.35
2018-09-18T14:14:56.379Z,34.58
2018-09-18T14:17:29.707Z,34.27
2018-09-18T14:20:03.078Z,34.45
2018-09-18T14:22:36.924Z,34.48
2018-09-18T14:25:10.338Z,34.15
2018-09-18T14:27:43.740Z,34.43
2018-09-18T14:30:17.178Z,34.25
2018-09-18T14:32:50.570Z,34.10
2018-09-18T14:35:23.965Z,34.45
2018-09-18T14:37:57.500Z,34.48
2018-09-18T14:40:30.986Z,34.18
2018-09-18T14:43:04.393Z,34.25
2018-09-18T14:45:37.763Z,34.23
2018-09-18T14:48:11.186Z,34.63
2018-09-18T14:50:44.563Z,33.95
2018-09-18T14:53:17.990Z,34.80
2018-09-18T14:55:51.394Z,34.38
2018-09-18T14:58:24.782Z,34.35
2018-09-18T15:00:58.150Z,34.05
2018-09-18T15:03:31.618Z,34.30
2018-09-18T15:06:05.005Z,34.25
2018-09-18T15:08:38.480Z,34.43
2018-09-18T15:11:11.846Z,34.20
2018-09-18T15:13:45.247Z,34.23
2018-09-18T15:16:18.610Z,34.33
2018-09-18T15:18:52.015Z,34.38
2018-09-18T15:21:25.397Z,34.05
2018-09-18T15:23:59.598Z,34.40
2018-09-18T15:26:32.968Z,33.63
2018-09-18T15:29:06.394Z,34.65
2018-09-18T15:31:39.774Z,34.33
2018-09-18T15:34:13.175Z,34.15
2018-09-18T15:36:46.541Z,34.63
2018-09-18T15:39:19.967Z,34.33
2018-09-18T15:41:53.464Z,34.45
2018-09-18T15:44:26.855Z,34.13
2018-09-18T15:47:00.268Z,34.70
2018-09-18T15:49:33.705Z,34.53
2018-09-18T15:52:07.181Z,34.25
2018-09-18T15:54:40.495Z,34.18
2018-09-18T15:57:13.903Z,33.58
2018-09-18T15:59:48.258Z,34.65
2018-09-18T16:02:21.638Z,33.92
2018-09-18T16:04:55.040Z,34.00
2018-09-18T16:07:28.442Z,34.38
2018-09-18T16:10:01.838Z,34.00
2018-09-18T16:12:35.239Z,33.80
2018-09-18T16:15:08.672Z,34.15
2018-09-18T16:17:43.336Z,34.40
2018-09-18T16:20:16.738Z,33.67
2018-09-18T16:22:50.146Z,34.23
2018-09-18T16:25:23.534Z,33.70
2018-09-18T16:27:56.928Z,33.13
2018-09-18T16:30:30.324Z,33.45
2018-09-18T16:33:04.456Z,34.25
2018-09-18T16:35:37.890Z,35.17
2018-09-18T16:38:11.267Z,34.15
2018-09-18T16:40:44.729Z,34.43
2018-09-18T16:43:18.074Z,33.75
2018-09-18T16:45:51.505Z,34.15
2018-09-18T16:48:24.971Z,34.20
2018-09-18T16:50:58.362Z,34.25
2018-09-18T16:53:31.727Z,34.13
2018-09-18T16:56:05.111Z,33.70
2018-09-18T16:58:38.645Z,34.60
2018-09-18T17:01:11.986Z,34.67
2018-09-18T17:03:46.460Z,34.30
2018-09-18T17:06:19.855Z,34.18
2018-09-18T17:08:53.551Z,33.75
2018-09-18T17:11:26.946Z,34.25
2018-09-18T17:14:00.338Z,34.35
2018-09-18T17:16:34.010Z,34.60
2018-09-18T17:19:07.480Z,34.25
2018-09-18T17:21:40.867Z,34.63
2018-09-18T17:24:14.330Z,34.13
2018-09-18T17:26:47.760Z,34.60
2018-09-18T17:29:21.184Z,34.95
2018-09-18T17:31:54.534Z,34.13
2018-09-18T17:34:27.923Z,34.40
2018-09-18T17:37:01.299Z,34.10
2018-09-18T17:39:34.744Z,34.63
2018-09-18T17:42:08.174Z,34.70
2018-09-18T17:44:41.528Z,34.53
2018-09-18T17:47:14.898Z,35.00
2018-09-18T17:49:48.284Z,34.78
2018-09-18T17:52:23.022Z,34.45
2018-09-18T17:54:56.425Z,34.73
2018-09-18T17:57:29.816Z,33.88
2018-09-18T18:00:03.325Z,34.10
2018-09-18T18:02:36.702Z,34.20
2018-09-18T18:05:10.063Z,34.53
2018-09-18T18:07:43.438Z,34.63
2018-09-18T18:10:16.821Z,34.60
2018-09-18T18:12:50.357Z,34.70
2018-09-18T18:15:23.718Z,34.67
2018-09-18T18:17:57.114Z,34.95
2018-09-18T18:20:31.651Z,34.53
2018-09-18T18:23:04.972Z,34.90
2018-09-18T18:25:38.346Z,34.50
2018-09-18T18:28:11.727Z,34.55
2018-09-18T18:30:45.079Z,34.70
2018-09-18T18:33:18.529Z,34.20
2018-09-18T18:35:51.883Z,34.27
2018-09-18T18:38:25.310Z,34.78
2018-09-18T18:40:58.960Z,34.80
2018-09-18T18:43:41.264Z,34.80
2018-09-18T18:46:15.368Z,34.70
2018-09-18T18:48:51.599Z,34.95
2018-09-18T18:51:25.022Z,35.08
2018-09-18T18:53:58.618Z,34.38
2018-09-18T18:56:32.048Z,34.20
2018-09-18T18:59:09.221Z,34.15
2018-09-18T19:01:42.676Z,34.18
2018-09-18T19:04:16.065Z,34.03
2018-09-18T19:06:52.393Z,34.70
2018-09-18T19:09:32.332Z,34.00
2018-09-18T19:12:06.404Z,34.03
2018-09-18T19:14:39.803Z,33.83
2018-09-18T19:17:13.218Z,33.33
2018-09-18T19:19:46.731Z,33.58
2018-09-18T19:22:20.094Z,33.28
2018-09-18T19:24:53.795Z,32.70
2018-09-18T19:27:27.181Z,32.00
2018-09-18T19:30:00.600Z,32.17
2018-09-18T19:32:33.997Z,31.75
2018-09-18T19:35:07.398Z,31.82
2018-09-18T19:37:40.776Z,32.05
2018-09-18T19:40:14.173Z,32.78
2018-09-18T19:42:47.543Z,32.95
2018-09-18T19:45:20.942Z,32.15
2018-09-18T19:47:54.343Z,32.10
2018-09-18T19:50:27.732Z,32.55
2018-09-18T19:53:01.139Z,32.45
2018-09-18T19:55:34.517Z,31.90
2018-09-18T19:58:07.917Z,31.48
2018-09-18T20:00:41.291Z,31.17
2018-09-18T20:03:14.693Z,30.88
2018-09-18T20:05:48.125Z,31.25
2018-09-18T20:08:21.474Z,30.70
2018-09-18T20:10:54.883Z,31.07
2018-09-18T20:13:28.228Z,30.80
2018-09-18T20:16:01.690Z,31.12
2018-09-18T20:18:35.082Z,31.40
2018-09-18T20:21:08.463Z,30.85
2018-09-18T20:23:41.819Z,30.35
2018-09-18T20:26:15.202Z,30.75
2018-09-18T20:28:48.610Z,30.50
2018-09-18T20:31:21.980Z,30.75
2018-09-18T20:33:55.330Z,31.00
2018-09-18T20:36:28.814Z,31.12
2018-09-18T20:39:02.127Z,30.77
2018-09-18T20:41:35.618Z,30.97
2018-09-18T20:44:08.962Z,30.72
2018-09-18T20:46:42.373Z,30.68
2018-09-18T20:49:15.732Z,30.85
2018-09-18T20:51:49.101Z,31.20
2018-09-18T20:54:22.450Z,31.37
2018-09-18T20:56:55.819Z,31.30
2018-09-18T20:59:29.180Z,30.82
2018-09-18T21:02:02.629Z,30.90
2018-09-18T21:04:35.942Z,30.97
2018-09-18T21:07:09.446Z,31.42
2018-09-18T21:09:48.963Z,31.20
2018-09-18T21:12:22.337Z,30.88
2018-09-18T21:14:55.894Z,31.35
2018-09-18T21:17:29.310Z,31.70
2018-09-18T21:20:02.704Z,30.88
2018-09-18T21:22:36.080Z,31.77
2018-09-18T21:25:13.792Z,31.52
2018-09-18T21:27:47.831Z,31.97
2018-09-18T21:30:21.187Z,31.15
2018-09-18T21:32:54.566Z,31.25
2018-09-18T21:35:28.183Z,31.02
2018-09-18T21:38:01.550Z,31.17
2018-09-18T21:40:34.935Z,31.73
2018-09-18T21:43:08.322Z,30.88
2018-09-18T21:45:41.693Z,31.15
2018-09-18T21:48:15.280Z,31.20
2018-09-18T21:50:48.655Z,31.05
2018-09-18T21:53:24.333Z,31.20
2018-09-18T21:55:57.722Z,33.80
2018-09-18T21:58:31.103Z,31.75
2018-09-18T22:01:06.402Z,31.45
2018-09-18T22:03:41.559Z,31.35
2018-09-18T22:06:15.004Z,31.70
2018-09-18T22:08:48.596Z,32.10
2018-09-18T22:11:22.073Z,31.75
2018-09-18T22:16:40.814Z,32.17
2018-09-18T22:19:14.255Z,31.35
2018-09-18T22:21:47.694Z,31.57
2018-09-18T22:24:21.066Z,31.77
2018-09-18T22:26:57.798Z,31.17
2018-09-18T22:29:31.166Z,31.23
2018-09-18T22:32:05.866Z,31.45
2018-09-18T22:34:39.238Z,31.07
2018-09-18T22:37:18.574Z,31.55
2018-09-18T22:39:52.060Z,31.82
2018-09-18T22:42:25.459Z,31.65
2018-09-18T22:44:58.874Z,31.37
2018-09-18T22:47:32.313Z,31.23
2018-09-18T22:50:08.635Z,31.90
2018-09-18T22:52:57.997Z,30.95
2018-09-18T22:55:31.386Z,30.97
2018-09-18T22:58:05.383Z,30.90
2018-09-18T23:00:40.863Z,31.30
2018-09-18T23:03:16.841Z,30.50
2018-09-18T23:05:51.292Z,30.23
2018-09-18T23:08:25.763Z,30.75
2018-09-18T23:10:59.130Z,30.65
2018-09-18T23:13:39.771Z,30.48
2018-09-18T23:16:13.146Z,30.20
2018-09-18T23:18:46.589Z,30.30
2018-09-18T23:21:19.926Z,30.77
2018-09-18T23:23:56.000Z,30.35
2018-09-18T23:26:29.371Z,30.10
2018-09-18T23:29:02.826Z,30.40
2018-09-18T23:31:36.555Z,30.52
2018-09-18T23:34:11.269Z,30.68
2018-09-18T23:36:44.633Z,30.50
2018-09-18T23:39:18.236Z,30.60
2018-09-18T23:41:51.610Z,30.32
2018-09-18T23:44:24.998Z,30.45
2018-09-18T23:46:58.392Z,30.45
2018-09-18T23:49:31.983Z,30.68
2018-09-18T23:52:06.857Z,29.82
2018-09-18T23:54:40.257Z,29.92
2018-09-18T23:57:13.622Z,30.37
2018-09-18T23:59:57.811Z,29.98
